Time;durP1;ratioP1;P1;durP2;ratioP2;P2;SDS_P1;SDS_P2;PMS_P1;PMS_P2;Temp;Humidity;BMP_temperature;BMP_pressure;BME280_temperature;BME280_humidity;BME280_pressure;Samples;Min_cycle;Max_cycle;Signal;HPM_P1;HPM_P2
2023/04/06 00:00:44;;;;;;;5.93;4.03;;;;;;;3.15;100.00;99525.25;5138981;28;20404;-62
2023/04/06 00:03:10;;;;;;;4.10;3.42;;;;;;;3.04;100.00;99511.94;5139130;28;20086;-58
2023/04/06 00:05:37;;;;;;;6.32;3.60;;;;;;;3.27;100.00;99498.41;5138247;27;20328;-58
2023/04/06 00:08:03;;;;;;;4.57;3.38;;;;;;;3.37;100.00;99491.94;5139114;27;20364;-53
2023/04/06 00:10:29;;;;;;;5.72;3.72;;;;;;;3.23;100.00;99502.81;5138902;28;20082;-62
2023/04/06 00:12:56;;;;;;;8.57;4.53;;;;;;;3.20;100.00;99498.03;5138564;28;20047;-58
2023/04/06 00:15:22;;;;;;;5.05;3.95;;;;;;;3.51;100.00;99488.03;5139052;27;20051;-56
2023/04/06 00:17:48;;;;;;;7.90;3.60;;;;;;;3.65;100.00;99501.50;5138729;28;20267;-58
2023/04/06 00:20:14;;;;;;;4.72;3.65;;;;;;;3.33;100.00;99520.75;5138688;27;20355;-64
2023/04/06 00:22:41;;;;;;;8.52;4.72;;;;;;;3.32;100.00;99519.16;5138392;28;20370;-59
2023/04/06 00:25:08;;;;;;;6.30;3.95;;;;;;;3.37;100.00;99513.63;5138689;28;20047;-56
2023/04/06 00:27:34;;;;;;;6.47;4.63;;;;;;;3.27;100.00;99501.94;5138498;27;20082;-58
2023/04/06 00:30:00;;;;;;;7.28;4.60;;;;;;;3.25;100.00;99497.91;5138785;27;20308;-56
2023/04/06 00:32:26;;;;;;;7.47;4.55;;;;;;;3.42;100.00;99494.53;5138308;28;20067;-60
2023/04/06 00:34:52;;;;;;;6.10;4.47;;;;;;;3.44;100.00;99498.53;5138710;28;20047;-62
2023/04/06 00:37:19;;;;;;;7.00;4.10;;;;;;;3.40;100.00;99504.84;5138430;28;20123;-64
2023/04/06 00:39:45;;;;;;;8.25;4.63;;;;;;;3.46;100.00;99498.22;5138394;27;20108;-64
2023/04/06 00:42:13;;;;;;;6.45;4.32;;;;;;;3.65;100.00;99509.66;5138377;28;20075;-63
2023/04/06 00:44:39;;;;;;;5.70;4.30;;;;;;;3.58;100.00;99527.47;5138056;28;20047;-62
2023/04/06 00:47:05;;;;;;;7.55;4.57;;;;;;;3.44;100.00;99522.13;5138701;28;20141;-56
2023/04/06 00:49:32;;;;;;;8.50;5.25;;;;;;;3.38;100.00;99523.34;5137645;27;20097;-60
2023/04/06 00:51:58;;;;;;;10.18;5.80;;;;;;;3.37;100.00;99491.94;5138415;28;20145;-60
2023/04/06 00:54:24;;;;;;;8.48;4.90;;;;;;;3.18;100.00;99479.38;5138043;27;20420;-55
2023/04/06 00:56:51;;;;;;;16.02;5.80;;;;;;;3.14;100.00;99470.28;5138376;28;20370;-63
2023/04/06 00:59:17;;;;;;;7.88;5.32;;;;;;;3.34;100.00;99443.78;5137868;28;20099;-62
2023/04/06 01:01:43;;;;;;;10.07;5.45;;;;;;;3.22;100.00;99428.09;5138195;28;20134;-56
2023/04/06 01:04:09;;;;;;;9.07;5.20;;;;;;;3.26;100.00;99427.16;5137821;28;20130;-58
2023/04/06 01:06:35;;;;;;;8.18;4.85;;;;;;;3.33;100.00;99398.81;5138203;28;20130;-62
2023/04/06 01:09:01;;;;;;;10.05;5.28;;;;;;;3.16;100.00;99396.81;5137661;28;20049;-62
2023/04/06 01:11:27;;;;;;;10.70;5.45;;;;;;;3.58;100.00;99378.38;5137933;28;20098;-55
2023/04/06 01:13:54;;;;;;;12.32;5.70;;;;;;;3.50;100.00;99377.22;5137691;28;20043;-60
2023/04/06 01:16:20;;;;;;;10.68;6.50;;;;;;;3.22;100.00;99382.03;5136704;27;20043;-61
2023/04/06 01:18:46;;;;;;;11.82;7.10;;;;;;;3.26;100.00;99362.13;5138015;28;20082;-62
2023/04/06 01:21:15;;;;;;;13.73;6.65;;;;;;;3.51;100.00;99363.34;5139425;28;20082;-57
2023/04/06 01:23:44;;;;;;;15.30;7.18;;;;;;;3.28;100.00;99353.69;5142411;27;20106;-60
2023/04/06 01:26:10;;;;;;;11.45;5.90;;;;;;;3.28;100.00;99359.09;5138466;27;20051;-59
2023/04/06 01:28:37;;;;;;;18.08;7.70;;;;;;;3.35;100.00;99345.13;5137938;28;20141;-62
2023/04/06 01:31:03;;;;;;;31.70;6.28;;;;;;;3.53;100.00;99344.06;5137383;28;20142;-56
2023/04/06 01:33:29;;;;;;;11.77;5.78;;;;;;;3.45;100.00;99332.06;5137818;27;20070;-55
2023/04/06 01:35:55;;;;;;;16.85;6.80;;;;;;;3.52;100.00;99334.34;5137547;28;20070;-63
2023/04/06 01:38:21;;;;;;;19.33;7.13;;;;;;;3.55;100.00;99325.56;5137343;28;20142;-58
2023/04/06 01:40:48;;;;;;;19.55;6.93;;;;;;;3.42;100.00;99340.03;5137444;28;20142;-63
2023/04/06 01:43:14;;;;;;;15.38;5.88;;;;;;;3.25;100.00;99335.34;5137148;28;20087;-60
2023/04/06 01:45:40;;;;;;;26.88;6.00;;;;;;;3.53;100.00;99312.34;5137606;28;20141;-56
2023/04/06 01:48:07;;;;;;;16.73;6.60;;;;;;;3.49;100.00;99321.41;5137183;27;20054;-58
2023/04/06 01:50:33;;;;;;;26.30;6.47;;;;;;;3.58;100.00;99326.88;5137477;27;20412;-57
2023/04/06 01:52:59;;;;;;;16.25;7.40;;;;;;;3.45;100.00;99328.56;5137227;28;20051;-57
2023/04/06 01:55:25;;;;;;;27.90;7.35;;;;;;;3.61;100.00;99318.91;5137113;27;20110;-59
2023/04/06 01:57:52;;;;;;;14.40;7.72;;;;;;;3.53;100.00;99325.06;5137350;28;20087;-62
2023/04/06 02:00:18;;;;;;;13.43;6.63;;;;;;;3.43;100.00;99320.78;5137506;28;20618;-62
2023/04/06 02:02:44;;;;;;;17.23;6.82;;;;;;;3.35;100.00;99324.22;5136982;27;20392;-57
2023/04/06 02:05:10;;;;;;;19.75;7.10;;;;;;;3.66;100.00;99315.22;5137165;27;20058;-61
2023/04/06 02:07:36;;;;;;;12.27;7.50;;;;;;;3.42;100.00;99318.34;5137012;28;20313;-63
2023/04/06 02:10:03;;;;;;;35.10;8.18;;;;;;;3.44;100.00;99300.69;5137143;28;20058;-63
2023/04/06 02:12:29;;;;;;;27.15;7.25;;;;;;;3.22;100.00;99309.66;5137192;27;20086;-61
2023/04/06 02:14:55;;;;;;;28.00;8.18;;;;;;;3.46;100.00;99295.72;5136890;27;20047;-54
2023/04/06 02:17:21;;;;;;;22.38;7.53;;;;;;;3.42;100.00;99297.47;5137202;28;20130;-56
2023/04/06 02:19:47;;;;;;;20.33;8.48;;;;;;;3.58;100.00;99295.13;5136975;28;20079;-57
2023/04/06 02:22:13;;;;;;;27.55;8.50;;;;;;;3.40;100.00;99298.88;5137295;27;20074;-59
2023/04/06 02:24:40;;;;;;;15.52;7.20;;;;;;;3.68;100.00;99296.75;5136709;28;20053;-62
2023/04/06 02:27:06;;;;;;;17.38;9.63;;;;;;;3.57;100.00;99309.00;5137906;27;20134;-56
2023/04/06 02:29:32;;;;;;;31.42;8.93;;;;;;;3.70;100.00;99308.09;5140303;28;20043;-60
2023/04/06 02:31:58;;;;;;;45.90;9.00;;;;;;;3.58;100.00;99314.09;5140748;28;20078;-63
2023/04/06 02:34:24;;;;;;;16.27;6.72;;;;;;;3.58;100.00;99318.72;5140168;28;20428;-62
2023/04/06 02:36:50;;;;;;;14.40;7.38;;;;;;;3.58;100.00;99324.94;5140377;27;20431;-60
2023/04/06 02:39:17;;;;;;;17.50;7.00;;;;;;;3.70;100.00;99325.16;5140715;27;20055;-56
2023/04/06 02:41:43;;;;;;;28.77;9.45;;;;;;;3.69;100.00;99315.41;5140265;28;20097;-55
2023/04/06 02:44:09;;;;;;;28.02;9.18;;;;;;;3.58;100.00;99321.44;5140381;28;20472;-59
2023/04/06 02:46:35;;;;;;;32.33;8.50;;;;;;;3.35;100.00;99318.00;5140308;27;20043;-57
2023/04/06 02:49:02;;;;;;;32.65;8.48;;;;;;;3.41;100.00;99306.72;5140384;28;20298;-58
2023/04/06 02:51:28;;;;;;;31.55;9.18;;;;;;;3.63;100.00;99302.31;5139928;27;20439;-57
2023/04/06 02:53:54;;;;;;;49.75;9.40;;;;;;;3.69;100.00;99303.75;5140338;28;20129;-54
2023/04/06 02:56:20;;;;;;;29.45;8.80;;;;;;;3.74;100.00;99311.75;5139964;28;20332;-60
2023/04/06 02:58:46;;;;;;;27.85;8.80;;;;;;;3.71;100.00;99309.69;5140365;27;20320;-59
2023/04/06 03:01:12;;;;;;;20.13;8.85;;;;;;;3.63;100.00;99308.56;5139732;28;20374;-62
2023/04/06 03:03:38;;;;;;;37.97;10.13;;;;;;;3.69;100.00;99318.13;5139634;27;20405;-57
2023/04/06 03:06:06;;;;;;;17.23;9.00;;;;;;;3.65;100.00;99308.22;5139879;27;20115;-57
2023/04/06 03:08:32;;;;;;;22.02;8.48;;;;;;;3.64;100.00;99310.13;5139867;27;20101;-63
2023/04/06 03:10:58;;;;;;;40.95;8.63;;;;;;;3.78;100.00;99318.16;5140175;28;20051;-57
2023/04/06 03:13:24;;;;;;;32.28;9.13;;;;;;;3.57;100.00;99298.97;5139772;28;20154;-56
2023/04/06 03:15:50;;;;;;;31.15;8.80;;;;;;;3.59;100.00;99304.84;5139700;28;20396;-61
2023/04/06 03:18:16;;;;;;;40.65;10.63;;;;;;;3.52;100.00;99291.75;5139511;27;20043;-58
2023/04/06 03:20:42;;;;;;;51.78;10.77;;;;;;;3.65;100.00;99281.13;5139914;28;20057;-60
2023/04/06 03:23:08;;;;;;;29.13;8.80;;;;;;;3.48;100.00;99290.00;5139472;27;20051;-58
2023/04/06 03:25:34;;;;;;;21.77;9.82;;;;;;;3.68;100.00;99273.16;5139814;28;20509;-56
2023/04/06 03:28:00;;;;;;;25.15;8.20;;;;;;;3.65;100.00;99265.63;5139400;28;20047;-62
2023/04/06 03:30:26;;;;;;;20.40;6.40;;;;;;;3.74;100.00;99274.59;5140123;28;20047;-63
2023/04/06 03:32:52;;;;;;;23.15;9.55;;;;;;;3.70;100.00;99270.13;5139229;28;20133;-60
2023/04/06 03:35:18;;;;;;;45.63;9.70;;;;;;;3.55;100.00;99274.06;5139388;28;20059;-55
2023/04/06 03:37:45;;;;;;;31.33;8.38;;;;;;;3.71;100.00;99280.66;5139220;27;20054;-57
2023/04/06 03:40:11;;;;;;;23.50;10.88;;;;;;;3.48;100.00;99274.53;5138531;27;20047;-61
2023/04/06 03:42:37;;;;;;;47.22;10.02;;;;;;;3.50;100.00;99266.91;5139415;28;20082;-56
2023/04/06 03:45:04;;;;;;;35.30;8.10;;;;;;;3.74;100.00;99255.63;5139233;28;20420;-56
2023/04/06 03:47:30;;;;;;;40.40;9.73;;;;;;;3.64;100.00;99263.25;5139408;28;20138;-56
2023/04/06 03:49:56;;;;;;;22.83;9.77;;;;;;;3.47;100.00;99261.31;5139141;27;20074;-55
2023/04/06 03:52:22;;;;;;;25.33;9.25;;;;;;;3.55;100.00;99257.81;5139380;28;20051;-56
2023/04/06 03:54:48;;;;;;;43.15;9.15;;;;;;;3.54;100.00;99257.00;5138937;28;20047;-58
2023/04/06 03:57:15;;;;;;;20.27;9.63;;;;;;;3.61;100.00;99253.84;5139333;27;20054;-62
2023/04/06 03:59:41;;;;;;;29.60;9.45;;;;;;;3.70;100.00;99251.94;5138818;28;20055;-63
2023/04/06 04:02:07;;;;;;;21.63;9.50;;;;;;;3.67;100.00;99273.47;5139212;27;20047;-63
2023/04/06 04:04:33;;;;;;;29.92;11.85;;;;;;;3.59;100.00;99269.59;5138948;27;20051;-58
2023/04/06 04:06:59;;;;;;;19.50;9.15;;;;;;;4.08;100.00;99251.31;5138728;28;20054;-57
2023/04/06 04:09:25;;;;;;;30.80;10.75;;;;;;;4.01;100.00;99268.06;5139011;28;20053;-55
2023/04/06 04:11:51;;;;;;;23.27;10.43;;;;;;;3.95;100.00;99282.13;5139108;28;20055;-62
2023/04/06 04:14:17;;;;;;;22.60;9.65;;;;;;;4.16;100.00;99274.13;5138997;28;20047;-62
2023/04/06 04:16:43;;;;;;;24.33;9.60;;;;;;;3.98;100.00;99293.13;5138584;28;20376;-62
2023/04/06 04:19:09;;;;;;;26.92;9.45;;;;;;;3.84;100.00;99291.69;5138910;28;20043;-63
2023/04/06 04:21:43;;;;;;;21.65;10.07;;;;;;;4.07;100.00;99290.44;5138656;28;20325;-59
2023/04/06 04:24:09;;;;;;;19.83;9.53;;;;;;;3.87;100.00;99301.91;5138798;27;20062;-55
2023/04/06 04:26:35;;;;;;;20.52;11.88;;;;;;;3.96;100.00;99298.06;5138451;28;20051;-54
2023/04/06 04:29:01;;;;;;;20.10;9.98;;;;;;;3.92;100.00;99296.31;5138885;27;20079;-63
2023/04/06 04:31:27;;;;;;;22.00;10.05;;;;;;;3.92;100.00;99283.53;5138563;27;20428;-58
2023/04/06 04:33:53;;;;;;;22.88;9.57;;;;;;;4.24;100.00;99285.00;5138463;28;20047;-59
2023/04/06 04:36:19;;;;;;;17.73;9.80;;;;;;;4.14;100.00;99293.47;5138515;28;20435;-56
2023/04/06 04:38:45;;;;;;;21.42;9.27;;;;;;;4.21;100.00;99284.84;5138384;28;20061;-57
2023/04/06 04:41:11;;;;;;;13.30;6.68;;;;;;;4.19;100.00;99304.16;5138312;27;20051;-63
2023/04/06 04:43:38;;;;;;;21.88;10.55;;;;;;;4.15;100.00;99296.97;5138151;27;20058;-63
2023/04/06 04:46:04;;;;;;;19.35;10.38;;;;;;;4.29;100.00;99303.03;5138536;28;20390;-57
2023/04/06 04:48:31;;;;;;;19.35;10.32;;;;;;;4.33;100.00;99305.91;5139050;28;20084;-54
2023/04/06 04:50:57;;;;;;;19.70;9.50;;;;;;;4.39;100.00;99323.63;5140988;27;20076;-58
2023/04/06 04:53:23;;;;;;;20.30;10.10;;;;;;;4.41;100.00;99335.78;5139166;27;20336;-58
2023/04/06 04:55:49;;;;;;;19.15;10.32;;;;;;;4.40;100.00;99336.09;5138349;28;20055;-58
2023/04/06 04:58:16;;;;;;;18.65;9.27;;;;;;;4.39;100.00;99345.34;5137743;28;20042;-62
2023/04/06 05:00:42;;;;;;;17.55;9.35;;;;;;;4.34;100.00;99346.31;5138122;28;20051;-64
2023/04/06 05:03:09;;;;;;;18.30;10.88;;;;;;;4.44;100.00;99347.91;5138000;28;20146;-60
2023/04/06 05:05:36;;;;;;;18.50;9.65;;;;;;;4.69;100.00;99351.72;5137509;28;20082;-59
2023/04/06 05:08:02;;;;;;;15.73;8.50;;;;;;;4.94;100.00;99355.53;5137662;27;20138;-59
2023/04/06 05:10:28;;;;;;;15.10;8.88;;;;;;;4.91;100.00;99396.94;5137439;27;20130;-64
2023/04/06 05:12:54;;;;;;;17.88;8.65;;;;;;;5.25;100.00;99411.56;5137708;28;20285;-59
2023/04/06 05:15:20;;;;;;;20.65;9.35;;;;;;;5.30;100.00;99450.28;5137613;28;20078;-55
2023/04/06 05:17:46;;;;;;;15.93;9.13;;;;;;;5.12;100.00;99479.38;5137864;27;20047;-56
2023/04/06 05:20:12;;;;;;;16.45;8.70;;;;;;;5.22;100.00;99502.72;5137180;28;20062;-62
2023/04/06 05:22:39;;;;;;;15.68;9.23;;;;;;;5.36;100.00;99511.50;5137605;28;20051;-60
2023/04/06 05:25:06;;;;;;;20.50;10.30;;;;;;;5.37;100.00;99534.06;5137329;27;20086;-59
2023/04/06 05:27:32;;;;;;;14.73;8.10;;;;;;;5.49;100.00;99542.34;5137819;27;20054;-60
2023/04/06 05:29:58;;;;;;;16.20;9.00;;;;;;;5.30;100.00;99564.44;5137496;27;20055;-59
2023/04/06 05:32:24;;;;;;;15.15;8.52;;;;;;;5.38;100.00;99595.47;5137145;28;20051;-58
2023/04/06 05:34:50;;;;;;;19.92;8.02;;;;;;;5.92;100.00;99614.94;5137454;28;20137;-61
2023/04/06 05:37:16;;;;;;;15.70;9.07;;;;;;;5.77;100.00;99657.06;5137306;28;20055;-61
2023/04/06 05:39:43;;;;;;;16.67;8.82;;;;;;;5.79;100.00;99675.78;5137180;27;20470;-62
2023/04/06 05:42:09;;;;;;;15.98;9.02;;;;;;;5.55;100.00;99684.41;5137111;27;20478;-59
2023/04/06 05:44:37;;;;;;;15.80;9.30;;;;;;;6.01;100.00;99674.84;5137381;28;20080;-55
2023/04/06 05:47:03;;;;;;;15.50;8.60;;;;;;;5.93;100.00;99692.78;5137051;27;20371;-58
2023/04/06 05:49:29;;;;;;;12.70;8.10;;;;;;;6.10;100.00;99691.97;5137196;28;20409;-59
2023/04/06 05:51:55;;;;;;;14.75;9.25;;;;;;;6.13;100.00;99708.47;5137020;28;20055;-62
2023/04/06 05:54:21;;;;;;;18.08;8.82;;;;;;;5.96;100.00;99730.22;5137824;27;20140;-61
2023/04/06 05:56:48;;;;;;;15.43;9.07;;;;;;;6.28;100.00;99728.16;5136655;28;20062;-59
2023/04/06 05:59:14;;;;;;;15.07;9.27;;;;;;;6.35;100.00;99734.69;5137282;28;20086;-59
2023/04/06 06:01:39;;;;;;;12.40;8.73;;;;;;;6.42;100.00;99750.53;5134231;27;20047;-60
2023/04/06 06:04:05;;;;;;;14.80;8.70;;;;;;;6.62;100.00;99748.28;5140273;28;20070;-60
2023/04/06 06:06:31;;;;;;;14.02;9.07;;;;;;;6.57;100.00;99751.97;5140490;28;20054;-62
2023/04/06 06:08:58;;;;;;;12.50;8.13;;;;;;;6.73;100.00;99754.97;5140445;28;20059;-60
2023/04/06 06:11:25;;;;;;;11.80;8.45;;;;;;;6.73;100.00;99746.78;5140542;28;20047;-57
2023/04/06 06:13:52;;;;;;;19.33;8.13;;;;;;;6.77;100.00;99747.75;5140283;28;20112;-55
2023/04/06 06:16:18;;;;;;;13.55;8.48;;;;;;;7.09;100.00;99746.34;5140470;28;20478;-57
2023/04/06 06:18:44;;;;;;;11.85;8.30;;;;;;;6.42;100.00;99733.41;5140035;28;20468;-59
2023/04/06 06:21:12;;;;;;;14.85;9.23;;;;;;;6.31;100.00;99746.56;5140381;27;20514;-61
2023/04/06 06:23:38;;;;;;;14.95;8.70;;;;;;;6.32;100.00;99750.88;5139852;28;20421;-59
2023/04/06 06:26:04;;;;;;;13.80;8.65;;;;;;;6.43;100.00;99757.63;5140599;28;20058;-60
2023/04/06 06:28:30;;;;;;;14.52;8.02;;;;;;;6.61;100.00;99761.09;5140016;28;20439;-59
2023/04/06 06:30:58;;;;;;;12.73;8.52;;;;;;;6.58;100.00;99764.47;5140356;27;20089;-60
2023/04/06 06:33:25;;;;;;;15.65;8.23;;;;;;;6.88;100.00;99757.19;5140232;28;20062;-58
2023/04/06 06:35:52;;;;;;;8.70;6.47;;;;;;;7.05;100.00;99769.94;5139849;27;20057;-56
2023/04/06 06:38:18;;;;;;;16.40;8.65;;;;;;;6.81;100.00;99756.88;5140278;28;20050;-60
2023/04/06 06:40:46;;;;;;;19.83;8.93;;;;;;;6.82;100.00;99750.31;5139934;28;20138;-59
2023/04/06 06:43:12;;;;;;;10.27;7.70;;;;;;;7.19;100.00;99742.47;5140181;28;20500;-63
2023/04/06 06:45:38;;;;;;;16.63;7.90;;;;;;;7.85;100.00;99723.59;5139826;27;20046;-59
2023/04/06 06:48:05;;;;;;;12.38;8.38;;;;;;;7.67;100.00;99673.81;5140095;27;20043;-56
2023/04/06 06:50:31;;;;;;;14.98;9.18;;;;;;;8.13;100.00;99611.91;5139748;28;20097;-59
2023/04/06 06:52:57;;;;;;;12.00;7.45;;;;;;;8.13;100.00;99504.59;5140167;28;20054;-63
2023/04/06 06:55:23;;;;;;;11.40;7.57;;;;;;;7.63;100.00;99462.78;5139666;27;20416;-60
2023/04/06 06:57:49;;;;;;;12.25;8.23;;;;;;;7.67;100.00;99463.69;5139793;27;20062;-58
2023/04/06 07:00:15;;;;;;;12.95;9.13;;;;;;;7.03;100.00;99524.13;5139914;27;20051;-54
2023/04/06 07:02:41;;;;;;;18.27;8.27;;;;;;;7.67;100.00;99581.03;5139517;27;20097;-61
2023/04/06 07:05:08;;;;;;;14.05;9.02;;;;;;;7.68;100.00;99595.47;5139505;27;20434;-56
2023/04/06 07:07:34;;;;;;;10.05;7.07;;;;;;;7.76;100.00;99572.75;5139249;28;20142;-61
2023/04/06 07:10:00;;;;;;;13.00;8.35;;;;;;;7.82;100.00;99563.22;5139790;27;20047;-62
2023/04/06 07:12:26;;;;;;;17.67;9.30;;;;;;;7.41;100.00;99551.25;5139260;28;20046;-58
2023/04/06 07:14:52;;;;;;;14.10;8.98;;;;;;;7.76;100.00;99573.56;5138424;27;20051;-61
2023/04/06 07:17:18;;;;;;;15.95;8.07;;;;;;;7.96;100.00;99571.94;5139129;28;20455;-59
2023/04/06 07:19:45;;;;;;;14.23;9.52;;;;;;;7.99;100.00;99532.22;5139520;28;20093;-57
2023/04/06 07:22:12;;;;;;;14.15;8.63;;;;;;;7.59;100.00;99557.34;5139298;28;20047;-58
2023/04/06 07:24:37;;;;;;;14.45;8.80;;;;;;;7.63;100.00;99585.56;5139722;28;20082;-60
2023/04/06 07:27:03;;;;;;;10.40;7.35;;;;;;;8.53;100.00;99525.78;5139401;27;20058;-58
2023/04/06 07:29:29;;;;;;;13.10;7.80;;;;;;;8.56;100.00;99434.94;5139030;28;20066;-57
2023/04/06 07:31:55;;;;;;;8.45;6.55;;;;;;;8.52;100.00;99363.78;5139142;27;20047;-59
2023/04/06 07:34:22;;;;;;;10.80;8.10;;;;;;;8.60;100.00;99250.03;5139546;28;20078;-62
2023/04/06 07:36:48;;;;;;;11.05;8.23;;;;;;;8.60;100.00;99174.31;5139260;28;20138;-61
2023/04/06 07:39:15;;;;;;;10.05;7.18;;;;;;;9.16;100.00;99140.50;5139072;28;20051;-62
2023/04/06 07:41:41;;;;;;;13.43;8.00;;;;;;;9.22;100.00;99119.91;5139157;28;20324;-58
2023/04/06 07:44:07;;;;;;;12.45;8.20;;;;;;;9.79;100.00;98882.94;5138692;28;20145;-62
2023/04/06 07:46:33;;;;;;;18.98;8.27;;;;;;;9.35;100.00;98771.19;5139115;27;20050;-59
2023/04/06 07:49:00;;;;;;;14.05;8.30;;;;;;;10.01;100.00;98648.56;5138603;27;20102;-53
2023/04/06 07:51:27;;;;;;;14.57;8.13;;;;;;;9.97;100.00;98636.00;5139164;27;20111;-56
2023/04/06 07:53:53;;;;;;;12.38;8.48;;;;;;;9.90;100.00;98683.25;5138659;27;20051;-62
2023/04/06 07:56:20;;;;;;;13.77;8.23;;;;;;;9.49;100.00;98633.03;5138826;28;20083;-58
2023/04/06 07:58:46;;;;;;;13.77;8.57;;;;;;;9.89;100.00;98569.41;5138608;28;20051;-60
2023/04/06 08:01:12;;;;;;;12.57;7.38;;;;;;;10.70;100.00;98486.41;5138816;27;20580;-59
2023/04/06 08:03:38;;;;;;;11.57;8.73;;;;;;;10.56;100.00;98494.50;5138765;27;20224;-55
2023/04/06 08:06:05;;;;;;;14.05;8.60;;;;;;;11.13;100.00;98440.00;5138536;28;20078;-61
2023/04/06 08:08:31;;;;;;;10.95;7.72;;;;;;;11.37;100.00;98413.81;5138296;27;20050;-60
2023/04/06 08:10:57;;;;;;;15.30;8.60;;;;;;;11.29;100.00;98338.13;5138356;28;20149;-59
2023/04/06 08:13:24;;;;;;;11.45;8.18;;;;;;;11.17;100.00;98355.75;5138788;27;20051;-60
2023/04/06 08:15:50;;;;;;;12.43;7.72;;;;;;;11.49;100.00;98363.25;5138521;28;20393;-58
2023/04/06 08:18:16;;;;;;;12.40;7.97;;;;;;;9.97;100.00;98395.84;5138736;28;20059;-57
2023/04/06 08:20:42;;;;;;;17.30;8.68;;;;;;;10.19;100.00;98528.22;5137977;28;20324;-58
2023/04/06 08:23:09;;;;;;;14.38;8.70;;;;;;;10.39;100.00;98509.66;5138689;28;20046;-58
2023/04/06 08:25:35;;;;;;;11.93;8.45;;;;;;;10.30;100.00;98449.72;5137473;27;20108;-57
2023/04/06 08:28:02;;;;;;;15.32;9.05;;;;;;;10.51;100.00;98462.00;5138023;28;20141;-57
2023/04/06 08:30:29;;;;;;;13.07;8.80;;;;;;;10.73;100.00;98458.22;5138488;28;20064;-62
2023/04/06 08:32:55;;;;;;;13.00;8.60;;;;;;;10.96;100.00;98399.56;5138028;27;20090;-59
2023/04/06 08:35:21;;;;;;;10.27;7.95;;;;;;;11.15;100.00;98390.22;5138105;28;20051;-55
2023/04/06 08:37:47;;;;;;;7.70;5.85;;;;;;;11.58;100.00;98382.09;5137940;27;20104;-55
2023/04/06 08:40:13;;;;;;;21.52;8.02;;;;;;;11.74;100.00;98372.28;5138240;27;20055;-62
2023/04/06 08:42:44;;;;;;;15.85;8.50;;;;;;;10.84;100.00;98340.38;5137982;27;20340;-62
2023/04/06 08:45:10;;;;;;;17.05;9.55;;;;;;;11.49;100.00;98347.56;5138143;28;20062;-61
2023/04/06 08:47:37;;;;;;;13.93;8.45;;;;;;;11.91;100.00;98320.53;5137843;28;20138;-59
2023/04/06 08:50:04;;;;;;;15.68;8.15;;;;;;;11.70;100.00;98315.81;5138533;28;20050;-62
2023/04/06 08:52:32;;;;;;;13.63;8.95;;;;;;;11.98;100.00;98320.53;5137957;27;20086;-58
2023/04/06 08:54:58;;;;;;;17.00;8.75;;;;;;;11.81;100.00;98351.50;5138209;27;20066;-61
2023/04/06 08:57:25;;;;;;;15.48;9.63;;;;;;;12.12;100.00;98309.50;5137817;28;20047;-62
2023/04/06 08:59:52;;;;;;;16.30;8.60;;;;;;;12.67;100.00;98289.69;5137691;28;20086;-62
2023/04/06 09:02:19;;;;;;;16.42;8.30;;;;;;;12.19;100.00;98279.25;5137735;27;20133;-57
2023/04/06 09:04:47;;;;;;;15.90;9.27;;;;;;;12.80;100.00;98275.50;5137835;28;20142;-57
2023/04/06 09:07:14;;;;;;;12.38;8.60;;;;;;;12.70;100.00;98285.38;5138198;27;20051;-59
2023/04/06 09:09:47;;;;;;;15.40;8.75;;;;;;;12.56;100.00;98290.91;5137414;28;20051;-57
2023/04/06 09:12:22;;;;;;;13.45;8.23;;;;;;;11.76;100.00;98286.75;5137918;27;20224;-57
2023/04/06 09:14:48;;;;;;;12.10;8.70;;;;;;;12.01;100.00;98289.53;5137336;28;20146;-58
2023/04/06 09:17:20;;;;;;;14.20;8.52;;;;;;;12.44;100.00;98286.66;5137696;28;20134;-58
2023/04/06 09:19:48;;;;;;;10.90;7.72;;;;;;;11.88;100.00;98288.38;5137410;28;20164;-61
2023/04/06 09:22:14;;;;;;;13.65;8.30;;;;;;;12.78;100.00;98291.63;5137033;27;20381;-58
2023/04/06 09:24:42;;;;;;;12.88;7.93;;;;;;;12.05;100.00;98292.25;5137293;28;20335;-54
2023/04/06 09:27:08;;;;;;;13.98;8.38;;;;;;;12.70;100.00;98285.38;5137270;28;20463;-53
2023/04/06 09:29:36;;;;;;;11.23;7.65;;;;;;;12.35;100.00;98286.28;5137623;27;20081;-56
2023/04/06 09:32:03;;;;;;;9.55;7.32;;;;;;;12.45;100.00;98271.72;5137377;27;20043;-60
2023/04/06 09:34:29;;;;;;;11.27;7.20;;;;;;;12.44;100.00;98290.19;5137130;27;20153;-57
2023/04/06 09:36:56;;;;;;;12.68;7.80;;;;;;;12.94;100.00;98272.66;5136523;27;20362;-59
2023/04/06 09:39:23;;;;;;;9.95;6.97;;;;;;;12.65;100.00;98267.31;5137653;27;20047;-61
2023/04/06 09:41:51;;;;;;;9.60;6.80;;;;;;;12.89;100.00;98268.34;5137135;28;20051;-54
2023/04/06 09:44:17;;;;;;;11.35;7.57;;;;;;;13.64;100.00;98265.09;5136908;28;20200;-56
2023/04/06 09:46:44;;;;;;;12.05;7.18;;;;;;;14.38;100.00;98277.72;5137286;27;20059;-59
2023/04/06 09:49:11;;;;;;;13.38;7.05;;;;;;;13.13;100.00;98310.69;5136927;28;20058;-57
2023/04/06 09:51:40;;;;;;;8.48;6.20;;;;;;;13.69;100.00;98269.38;5137423;27;20107;-55
2023/04/06 09:54:07;;;;;;;11.40;6.70;;;;;;;13.84;100.00;98275.53;5137174;28;20138;-55
2023/04/06 09:56:43;;;;;;;11.60;6.80;;;;;;;13.70;100.00;98284.72;5137248;28;20083;-60
2023/04/06 09:59:14;;;;;;;12.63;7.13;;;;;;;14.07;100.00;98291.47;5136830;28;20051;-59
2023/04/06 10:01:41;;;;;;;16.98;6.88;;;;;;;13.89;100.00;98333.75;5137371;27;20051;-54
2023/04/06 10:04:28;;;;;;;8.77;5.95;;;;;;;13.41;100.00;98315.22;5136892;27;20093;-58
2023/04/06 10:06:55;;;;;;;9.73;6.55;;;;;;;13.67;100.00;98252.47;5136994;27;20133;-57
2023/04/06 10:09:28;;;;;;;12.15;7.22;;;;;;;14.15;100.00;98270.09;5137059;28;20134;-57
2023/04/06 10:11:55;;;;;;;8.52;5.65;;;;;;;14.49;100.00;98294.91;5136715;28;20088;-58
2023/04/06 10:14:21;;;;;;;12.07;6.40;;;;;;;14.50;100.00;98308.34;5136824;28;20087;-59
2023/04/06 10:16:48;;;;;;;9.18;6.63;;;;;;;14.14;100.00;98294.13;5136657;27;20054;-57
2023/04/06 10:19:25;;;;;;;10.75;6.53;;;;;;;13.86;100.00;98265.69;5137118;28;20138;-59
2023/04/06 10:21:55;;;;;;;9.63;6.55;;;;;;;14.02;100.00;98221.00;5136686;27;20074;-61
2023/04/06 10:24:21;;;;;;;14.40;6.60;;;;;;;14.32;100.00;98238.78;5136877;27;20478;-55
2023/04/06 10:26:57;;;;;;;10.80;6.18;;;;;;;14.87;100.00;98247.97;5136519;28;20078;-54
2023/04/06 10:29:24;;;;;;;9.63;6.82;;;;;;;14.98;100.00;98318.38;5136781;28;20058;-57
2023/04/06 10:31:50;;;;;;;8.30;6.38;;;;;;;14.79;100.00;98321.78;5136555;27;20141;-59
2023/04/06 10:34:15;;;;;;;9.40;6.30;;;;;;;14.74;100.00;98272.59;5136576;28;20051;-55
2023/04/06 10:36:41;;;;;;;9.25;5.78;;;;;;;15.22;100.00;98277.81;5136447;28;20077;-55
2023/04/06 10:39:07;;;;;;;6.55;4.57;;;;;;;14.88;100.00;98269.63;5136506;28;20047;-57
2023/04/06 10:41:35;;;;;;;7.82;5.85;;;;;;;14.28;100.00;98288.47;5136631;27;20051;-60
2023/04/06 10:44:02;;;;;;;10.95;5.82;;;;;;;14.25;100.00;98302.28;5136183;27;20058;-60
2023/04/06 10:46:30;;;;;;;14.43;6.70;;;;;;;14.20;100.00;98273.19;5136431;27;20437;-57
2023/04/06 10:48:56;;;;;;;8.65;5.88;;;;;;;14.52;100.00;98270.09;5137935;27;20187;-58
2023/04/06 10:51:26;;;;;;;9.32;5.38;;;;;;;15.14;100.00;98270.06;5139496;27;20142;-56
2023/04/06 10:53:54;;;;;;;11.23;5.25;;;;;;;15.29;100.00;98321.91;5139757;28;20451;-61
2023/04/06 10:56:23;;;;;;;8.75;5.60;;;;;;;14.45;100.00;98283.94;5139867;28;20423;-56
2023/04/06 10:58:52;;;;;;;10.30;6.68;;;;;;;14.97;100.00;98272.66;5139614;28;20062;-61
2023/04/06 11:01:20;;;;;;;7.47;5.68;;;;;;;14.86;100.00;98266.50;5139592;27;20078;-61
2023/04/06 11:03:46;;;;;;;11.55;5.35;;;;;;;14.45;100.00;98236.28;5139489;28;20086;-61
2023/04/06 11:06:18;;;;;;;9.43;5.68;;;;;;;14.44;100.00;98215.41;5139426;28;20133;-60
2023/04/06 11:08:44;;;;;;;8.98;5.45;;;;;;;14.06;100.00;98245.78;5139929;28;20310;-59
2023/04/06 11:11:15;;;;;;;9.50;5.47;;;;;;;13.92;100.00;98219.16;5139223;27;20065;-59
2023/04/06 11:13:42;;;;;;;5.97;5.38;;;;;;;14.05;100.00;98191.88;5139697;28;20067;-56
2023/04/06 11:16:13;;;;;;;14.02;5.90;;;;;;;13.77;100.00;98185.47;5139343;27;20146;-56
2023/04/06 11:18:47;;;;;;;10.57;4.97;;;;;;;13.97;100.00;98174.63;5139768;27;20086;-58
2023/04/06 11:21:13;;;;;;;7.45;5.43;;;;;;;13.71;100.00;98178.06;5139437;27;21184;-60